Schnellsuche:     vonnach     am:               Ankunft heute   Abflug heute   
Wetterdaten des Sylter Flughafens. Alle Angaben sind ohne Gewähr.



Datum: 2018-06-22 22:20 UTC
   
Windrichtung: 310°
Windgeschwindigkeit: 15 - 30 Kt.
QNH: 1020 hPa
Temperatur: 13 °C
Taupunkt: 9 °C
rel. Luftfeuchte: 80 %

METAR EDXW 221820Z 31024KT 9999 BKN028 13/08 Q1020 RMK ATIS YAN=

Wolkenhöhen in den letzten 48 Stunden:






 

Im Jettempo nach Sylt!



Rhein-Neckar-Air

Mannheim
Die Rhein-Neckar-Air fliegt vom 28. April bis zum 26. Oktober 2018 nach Mannheim. Zur Seite der Rhein-Neckar-Air: www.flyRNA.de

Lufthansa

München, Zürich und Frankfurt/Main
Die Lufthansa fliegt vom 22. Juni bis zum 26. Oktober 2019 nach München, vom 16. Juni bis zum 26. Oktober 2019 nach Zürich und vom 23. Juni bis zum 12. Oktober 2019 nach Frankfurt/Main. Zur Seite der Lufthansa: www.lufthansa.de

Syltair

Hamburg
Die Syltair fliegt vom 29. März bis zum 04. Oktober 2018 nach Hamburg. Zur Seite der Syltair: www.syltair.de